Time;durP1;ratioP1;P1;durP2;ratioP2;P2;SDS_P1;SDS_P2;PMS_P1;PMS_P2;Temp;Humidity;BMP_temperature;BMP_pressure;BME280_temperature;BME280_humidity;BME280_pressure;Samples;Min_cycle;Max_cycle;Signal;HPM_P1;HPM_P2
2023/08/19 00:00:00;;;;;;;7.20;3.40;;;;;;;25.35;64.17;99767.50;6184528;23;20024;-88
2023/08/19 00:02:27;;;;;;;6.97;3.22;;;;;;;25.36;64.29;99774.56;6185443;23;20459;-88
2023/08/19 00:04:54;;;;;;;9.85;3.85;;;;;;;25.34;64.22;99776.72;6160587;23;20074;-88
2023/08/19 00:07:21;;;;;;;4.95;3.30;;;;;;;25.29;64.22;99765.69;6184965;23;20019;-88
2023/08/19 00:09:48;;;;;;;6.35;3.70;;;;;;;25.30;64.25;99770.91;6210523;23;20078;-88
2023/08/19 00:12:15;;;;;;;7.03;3.38;;;;;;;25.33;64.09;99775.88;6209796;23;20031;-89
2023/08/19 00:14:42;;;;;;;6.30;3.33;;;;;;;25.29;64.18;99774.69;6183648;23;20121;-88
2023/08/19 00:17:08;;;;;;;6.65;3.47;;;;;;;25.25;63.93;99775.38;6185591;23;20383;-89
2023/08/19 00:19:35;;;;;;;6.47;3.10;;;;;;;25.21;64.15;99775.00;6183996;23;20039;-89
2023/08/19 00:22:02;;;;;;;4.95;3.45;;;;;;;25.24;64.19;99774.56;6210488;23;20411;-89
2023/08/19 00:24:29;;;;;;;5.75;3.47;;;;;;;25.21;64.24;99777.72;6208575;23;20506;-89
2023/08/19 00:26:58;;;;;;;9.13;3.30;;;;;;;25.18;64.26;99775.47;6184007;23;20114;-88
2023/08/19 00:29:24;;;;;;;6.30;3.58;;;;;;;25.17;64.07;99776.56;6175101;23;20326;-89
2023/08/19 00:31:51;;;;;;;5.10;3.70;;;;;;;25.17;64.33;99771.13;6185032;23;20024;-88
2023/08/19 00:34:18;;;;;;;4.43;3.60;;;;;;;25.18;64.07;99766.50;6209033;23;20016;-88
2023/08/19 00:36:45;;;;;;;5.60;3.40;;;;;;;25.13;64.39;99765.28;6184893;23;20066;-88
2023/08/19 00:39:12;;;;;;;7.88;3.58;;;;;;;25.13;64.14;99762.56;6209536;23;20510;-89
2023/08/19 00:41:39;;;;;;;6.50;3.20;;;;;;;25.06;64.38;99761.84;6183436;23;20024;-89
2023/08/19 00:44:07;;;;;;;5.00;3.33;;;;;;;25.05;64.52;99764.78;6160410;23;20332;-89
2023/08/19 00:46:34;;;;;;;5.55;3.45;;;;;;;25.06;64.29;99752.84;6209225;23;20024;-89
2023/08/19 00:49:01;;;;;;;5.88;3.38;;;;;;;25.05;64.26;99762.91;6184232;23;20028;-88
2023/08/19 00:51:28;;;;;;;4.30;3.22;;;;;;;25.00;64.39;99759.22;6160041;23;20032;-89
2023/08/19 00:53:56;;;;;;;7.00;3.38;;;;;;;24.99;64.60;99763.84;6184451;23;20051;-89
2023/08/19 00:56:23;;;;;;;5.18;3.00;;;;;;;25.00;64.06;99770.91;6159753;23;20020;-89
2023/08/19 00:58:50;;;;;;;3.90;3.10;;;;;;;24.99;63.59;99768.44;6158204;23;20387;-88
2023/08/19 01:01:17;;;;;;;5.05;3.10;;;;;;;25.01;63.43;99766.31;6160049;23;20016;-88
2023/08/19 01:03:45;;;;;;;7.30;3.85;;;;;;;24.95;63.23;99770.78;6184731;23;20333;-89
2023/08/19 01:06:14;;;;;;;6.82;3.60;;;;;;;24.94;62.82;99769.13;6209659;23;20039;-88
2023/08/19 01:08:52;;;;;;;5.30;3.63;;;;;;;24.89;63.43;99763.56;6184817;23;20028;-88
2023/08/19 01:11:29;;;;;;;6.03;3.72;;;;;;;24.95;63.66;99762.63;6185071;23;20016;-88
2023/08/19 01:14:07;;;;;;;7.38;3.70;;;;;;;24.90;62.53;99760.59;6159931;23;20028;-88
2023/08/19 01:16:35;;;;;;;4.97;3.10;;;;;;;24.94;63.20;99765.59;6184164;23;20510;-88
2023/08/19 01:19:04;;;;;;;4.38;3.15;;;;;;;24.90;63.42;99765.22;6236112;23;20036;-88
2023/08/19 01:21:31;;;;;;;8.43;3.47;;;;;;;24.94;62.79;99758.28;6159495;23;20416;-88
2023/08/19 01:24:04;;;;;;;9.80;3.63;;;;;;;24.93;62.86;99759.31;6184758;23;20024;-89
2023/08/19 01:26:30;;;;;;;11.15;3.67;;;;;;;24.91;62.74;99756.84;6183340;23;20043;-87
2023/08/19 01:28:57;;;;;;;4.78;3.22;;;;;;;24.85;63.33;99759.66;6183392;23;20339;-88
2023/08/19 01:31:24;;;;;;;5.03;3.20;;;;;;;24.82;63.65;99769.09;6185195;23;20020;-88
2023/08/19 01:33:51;;;;;;;5.03;3.50;;;;;;;24.76;63.94;99767.31;6184209;23;20047;-88
2023/08/19 01:36:26;;;;;;;4.35;2.80;;;;;;;24.73;63.88;99754.19;6159795;23;20031;-88
2023/08/19 01:39:00;;;;;;;6.60;3.67;;;;;;;24.67;63.93;99771.38;6184979;23;20436;-88
2023/08/19 01:41:28;;;;;;;6.38;3.35;;;;;;;24.68;64.25;99764.91;6184370;23;20661;-89
2023/08/19 01:43:59;;;;;;;6.57;3.50;;;;;;;24.60;64.64;99754.34;6184892;23;20394;-89
2023/08/19 01:46:27;;;;;;;6.75;3.58;;;;;;;24.65;64.29;99768.94;6183970;23;20070;-87
2023/08/19 01:48:54;;;;;;;6.20;3.55;;;;;;;24.65;64.80;99770.78;6184360;23;20439;-88
2023/08/19 01:51:21;;;;;;;6.10;3.35;;;;;;;24.63;65.01;99764.78;6209049;23;20024;-88
2023/08/19 01:53:48;;;;;;;5.70;3.13;;;;;;;24.60;64.81;99765.22;6159444;23;20016;-88
2023/08/19 01:56:16;;;;;;;5.82;3.42;;;;;;;24.61;65.21;99764.19;6209505;23;20070;-88
2023/08/19 01:58:42;;;;;;;8.20;4.03;;;;;;;24.61;65.08;99766.88;6183982;23;20026;-88
2023/08/19 02:01:13;;;;;;;5.03;3.08;;;;;;;24.58;65.18;99765.47;6185003;23;20060;-88
2023/08/19 02:03:40;;;;;;;6.10;3.22;;;;;;;24.55;65.28;99765.06;6184288;23;20028;-88
2023/08/19 02:06:07;;;;;;;6.68;3.10;;;;;;;24.58;65.21;99772.78;6158812;23;20082;-89
2023/08/19 02:08:34;;;;;;;4.28;3.40;;;;;;;24.51;65.31;99758.47;6208636;23;20095;-88
2023/08/19 02:11:01;;;;;;;4.45;3.60;;;;;;;24.46;65.24;99765.41;6162410;23;20024;-88
2023/08/19 02:13:28;;;;;;;4.43;3.30;;;;;;;24.50;65.21;99771.22;6136696;23;20023;-88
2023/08/19 02:15:55;;;;;;;5.30;3.08;;;;;;;24.48;65.42;99765.19;6161672;23;20338;-88
2023/08/19 02:18:22;;;;;;;6.68;3.33;;;;;;;24.45;65.19;99768.31;6211078;23;20020;-88
2023/08/19 02:20:49;;;;;;;5.88;3.42;;;;;;;24.48;64.18;99768.72;6185719;23;20035;-88
2023/08/19 02:23:16;;;;;;;7.80;3.83;;;;;;;24.52;63.64;99763.66;6161053;23;20023;-88
2023/08/19 02:25:43;;;;;;;10.27;3.85;;;;;;;24.51;63.21;99770.16;6186217;23;20016;-88
2023/08/19 02:28:10;;;;;;;6.22;3.10;;;;;;;24.52;63.27;99776.41;6185574;23;20360;-89
2023/08/19 02:30:39;;;;;;;6.63;4.25;;;;;;;24.51;63.71;99777.47;6210684;23;20035;-88
2023/08/19 02:33:07;;;;;;;5.88;3.45;;;;;;;24.51;63.93;99772.88;6186043;23;20020;-88
2023/08/19 02:35:34;;;;;;;4.63;3.05;;;;;;;24.50;64.19;99773.94;6210297;23;20024;-89
2023/08/19 02:38:01;;;;;;;6.88;3.60;;;;;;;24.45;64.26;99771.91;6161333;23;20023;-88
2023/08/19 02:40:30;;;;;;;4.70;3.10;;;;;;;24.43;64.45;99771.25;6210049;23;20020;-88
2023/08/19 02:42:57;;;;;;;9.27;3.67;;;;;;;24.39;64.23;99763.78;6186359;23;20020;-89
2023/08/19 02:45:25;;;;;;;5.55;3.55;;;;;;;24.36;64.35;99759.66;6210445;23;20043;-88
2023/08/19 02:47:52;;;;;;;4.50;3.10;;;;;;;24.36;64.71;99758.81;6184926;23;20040;-89
2023/08/19 02:50:19;;;;;;;6.18;2.88;;;;;;;24.27;64.94;99758.28;6185642;23;20758;-89
2023/08/19 02:52:46;;;;;;;6.85;3.58;;;;;;;24.24;65.24;99758.75;6185196;23;20464;-88
2023/08/19 02:55:12;;;;;;;8.32;3.45;;;;;;;24.22;65.21;99764.41;6185345;23;20024;-88
2023/08/19 02:57:39;;;;;;;4.43;3.10;;;;;;;24.20;65.22;99763.00;6185846;23;20340;-88
2023/08/19 03:00:07;;;;;;;9.00;3.33;;;;;;;24.20;65.71;99765.72;6210358;23;20020;-88
2023/08/19 03:02:34;;;;;;;4.93;3.42;;;;;;;24.19;65.49;99758.59;6185181;23;20029;-88
2023/08/19 03:05:01;;;;;;;6.78;3.20;;;;;;;24.16;65.32;99767.19;6186173;23;20098;-88
2023/08/19 03:07:28;;;;;;;3.40;3.10;;;;;;;24.11;65.52;99765.16;6160119;23;20020;-88
2023/08/19 03:09:55;;;;;;;5.97;3.42;;;;;;;24.11;65.66;99765.16;6185877;23;20073;-88
2023/08/19 03:12:22;;;;;;;6.03;3.20;;;;;;;24.13;65.88;99768.47;6237568;23;20024;-87
2023/08/19 03:14:49;;;;;;;6.13;3.80;;;;;;;24.08;66.08;99772.94;6136217;23;20020;-87
2023/08/19 03:17:16;;;;;;;4.63;3.47;;;;;;;24.10;65.94;99771.66;6160582;23;20020;-88
2023/08/19 03:19:42;;;;;;;4.68;3.72;;;;;;;24.08;66.09;99767.50;6210261;23;20448;-90
2023/08/19 03:22:09;;;;;;;9.52;3.88;;;;;;;24.07;66.08;99766.69;6160349;23;20020;-89
2023/08/19 03:24:36;;;;;;;6.07;3.30;;;;;;;24.07;66.10;99763.13;6184472;23;20039;-88
2023/08/19 03:27:03;;;;;;;7.45;3.58;;;;;;;24.07;66.48;99765.84;6160567;23;20020;-89
2023/08/19 03:29:30;;;;;;;6.95;3.97;;;;;;;24.04;66.24;99762.53;6209296;23;20016;-89
2023/08/19 03:31:57;;;;;;;3.58;3.10;;;;;;;24.03;66.60;99758.16;6160604;23;20099;-90
2023/08/19 03:34:25;;;;;;;6.07;3.78;;;;;;;24.03;66.70;99771.72;6160579;23;20016;-90
2023/08/19 03:36:52;;;;;;;6.32;3.45;;;;;;;24.07;66.95;99765.84;6159672;23;20066;-90
2023/08/19 03:39:19;;;;;;;3.90;3.25;;;;;;;24.02;67.18;99770.06;6210079;23;20016;-89
2023/08/19 03:41:46;;;;;;;3.75;3.25;;;;;;;24.02;67.31;99775.50;6209706;23;20332;-90
2023/08/19 03:44:13;;;;;;;9.70;3.67;;;;;;;24.02;67.29;99769.25;6184403;23;20375;-90
2023/08/19 03:46:39;;;;;;;5.30;3.65;;;;;;;23.99;67.65;99773.25;6184852;23;20024;-90
2023/08/19 03:49:06;;;;;;;5.07;4.13;;;;;;;23.98;67.42;99774.28;6185188;23;20020;-89
2023/08/19 03:51:33;;;;;;;6.22;3.03;;;;;;;23.99;67.52;99766.97;6209312;23;20024;-89
2023/08/19 03:54:00;;;;;;;5.88;3.40;;;;;;;24.00;67.59;99772.16;6186202;23;20460;-88
2023/08/19 03:56:27;;;;;;;6.75;3.55;;;;;;;23.96;67.84;99764.69;6210452;23;20494;-89
2023/08/19 03:58:56;;;;;;;8.27;3.60;;;;;;;23.92;68.05;99761.63;6185232;23;20039;-89
2023/08/19 04:01:23;;;;;;;7.18;3.50;;;;;;;23.92;68.21;99777.91;6185350;23;20419;-88
2023/08/19 04:03:50;;;;;;;5.93;3.40;;;;;;;23.93;68.22;99773.28;6185022;23;20467;-88
2023/08/19 04:06:17;;;;;;;5.35;3.38;;;;;;;23.93;68.47;99776.81;6209935;23;20027;-88
2023/08/19 04:08:44;;;;;;;5.15;3.17;;;;;;;23.91;68.21;99776.22;6184458;23;20035;-88
2023/08/19 04:11:10;;;;;;;6.70;4.20;;;;;;;23.92;68.56;99775.19;6185782;23;20046;-89
2023/08/19 04:13:41;;;;;;;5.55;3.70;;;;;;;23.86;68.61;99767.09;6185415;23;20020;-89
2023/08/19 04:16:08;;;;;;;5.95;3.55;;;;;;;23.89;68.57;99772.94;6184885;23;20020;-89
2023/08/19 04:18:35;;;;;;;4.65;3.97;;;;;;;23.88;68.83;99765.81;6159111;23;20027;-89
2023/08/19 04:21:06;;;;;;;8.50;4.13;;;;;;;23.88;68.86;99771.25;6159042;23;20062;-89
2023/08/19 04:23:33;;;;;;;8.27;3.92;;;;;;;23.85;69.04;99770.88;6135961;23;20031;-88
2023/08/19 04:26:01;;;;;;;4.75;3.42;;;;;;;23.82;69.55;99774.88;6209664;23;20024;-88
2023/08/19 04:28:28;;;;;;;4.55;3.78;;;;;;;23.82;69.05;99786.53;6185428;23;20016;-89
2023/08/19 04:31:02;;;;;;;4.53;3.72;;;;;;;23.76;69.24;99773.03;6160043;23;20016;-89
2023/08/19 04:33:34;;;;;;;8.60;3.58;;;;;;;23.83;68.86;99768.38;6160072;23;20016;-88
2023/08/19 04:36:02;;;;;;;3.47;3.17;;;;;;;23.85;68.83;99771.69;6184653;23;20024;-88
2023/08/19 04:38:29;;;;;;;5.72;3.55;;;;;;;23.89;68.40;99766.66;6185078;23;20019;-88
2023/08/19 04:40:59;;;;;;;5.55;3.90;;;;;;;23.93;67.99;99771.41;6135990;23;20024;-89
2023/08/19 04:43:31;;;;;;;9.57;3.78;;;;;;;23.93;68.29;99774.13;6185390;23;20051;-89
2023/08/19 04:45:58;;;;;;;5.60;3.40;;;;;;;23.92;68.21;99783.31;6160235;23;20020;-88
2023/08/19 04:48:25;;;;;;;4.32;3.85;;;;;;;23.93;67.98;99784.97;6209467;23;20713;-88
2023/08/19 04:50:52;;;;;;;5.00;3.42;;;;;;;23.87;68.13;99785.88;6184318;23;20063;-89
2023/08/19 04:53:20;;;;;;;4.78;3.83;;;;;;;23.88;67.89;99786.69;6159756;23;20321;-89
2023/08/19 04:55:47;;;;;;;4.95;3.85;;;;;;;23.92;67.33;99787.91;6159304;23;20074;-88
2023/08/19 04:58:14;;;;;;;4.10;3.67;;;;;;;23.89;67.76;99786.50;6159747;23;20032;-89
2023/08/19 05:00:41;;;;;;;6.18;4.20;;;;;;;23.93;67.69;99795.00;6160023;23;20051;-88
2023/08/19 05:03:08;;;;;;;7.07;3.75;;;;;;;23.97;67.00;99801.63;6160101;23;20020;-88
2023/08/19 05:05:35;;;;;;;5.45;3.47;;;;;;;24.04;66.12;99810.50;6159923;23;20206;-88
2023/08/19 05:08:02;;;;;;;11.45;4.20;;;;;;;23.99;66.06;99804.94;6160750;23;20016;-89
2023/08/19 05:10:29;;;;;;;5.95;3.40;;;;;;;24.00;66.16;99807.44;6208843;23;20050;-89
2023/08/19 05:12:58;;;;;;;4.95;3.80;;;;;;;24.03;66.03;99806.16;6160591;23;20024;-88
2023/08/19 05:15:24;;;;;;;4.38;3.97;;;;;;;24.03;65.71;99806.16;6135555;23;20027;-89
2023/08/19 05:17:52;;;;;;;7.40;3.65;;;;;;;24.01;66.04;99794.69;6159180;23;20016;-89
2023/08/19 05:20:19;;;;;;;4.10;3.45;;;;;;;23.99;65.95;99797.66;6159456;23;20020;-89
2023/08/19 05:22:46;;;;;;;5.32;4.13;;;;;;;24.03;65.89;99792.59;6184402;23;20028;-89
2023/08/19 05:25:13;;;;;;;7.38;3.97;;;;;;;24.06;65.69;99797.56;6184794;23;20317;-88
2023/08/19 05:27:40;;;;;;;7.05;3.88;;;;;;;24.05;65.66;99799.44;6184382;23;22723;-89
2023/08/19 05:30:07;;;;;;;12.02;4.30;;;;;;;24.08;65.30;99795.47;6185529;23;20378;-89
2023/08/19 05:32:35;;;;;;;6.32;3.88;;;;;;;24.10;65.69;99796.06;6184029;23;20024;-88
2023/08/19 05:35:02;;;;;;;8.98;3.95;;;;;;;24.11;65.71;99800.44;6183956;23;20226;-88
2023/08/19 05:37:29;;;;;;;3.80;3.42;;;;;;;24.15;65.62;99798.94;6159872;23;20509;-88
2023/08/19 05:39:57;;;;;;;6.70;3.65;;;;;;;24.20;66.29;99804.50;6159508;23;20028;-87
2023/08/19 05:42:23;;;;;;;6.28;3.70;;;;;;;24.21;65.86;99803.44;6159962;23;20095;-88
2023/08/19 05:44:50;;;;;;;4.95;4.07;;;;;;;24.19;65.88;99805.53;6160859;23;20043;-89
2023/08/19 05:47:17;;;;;;;7.90;4.60;;;;;;;24.18;65.87;99805.78;6211141;23;20031;-87
2023/08/19 05:49:44;;;;;;;5.68;4.15;;;;;;;24.18;65.86;99814.75;6186051;23;20028;-88
2023/08/19 05:52:11;;;;;;;7.05;4.07;;;;;;;24.19;65.90;99816.41;6161931;23;20019;-88
2023/08/19 05:54:37;;;;;;;8.77;4.30;;;;;;;24.22;66.22;99817.84;6186025;23;20020;-88
2023/08/19 05:57:04;;;;;;;5.50;4.03;;;;;;;24.24;66.20;99821.16;6162585;23;20015;-89
2023/08/19 05:59:31;;;;;;;5.82;3.97;;;;;;;24.28;66.33;99822.38;6161521;23;20467;-89
2023/08/19 06:01:58;;;;;;;5.35;4.78;;;;;;;24.30;65.92;99825.69;6161029;23;20436;-89
2023/08/19 06:04:25;;;;;;;5.13;3.95;;;;;;;24.34;66.04;99826.06;6212204;23;20016;-88
2023/08/19 06:06:52;;;;;;;4.55;3.42;;;;;;;24.36;66.00;99827.50;6210482;23;20024;-88
2023/08/19 06:09:21;;;;;;;5.82;3.83;;;;;;;24.40;65.87;99828.72;6161484;23;20058;-89
2023/08/19 06:11:49;;;;;;;5.07;4.13;;;;;;;24.42;65.59;99832.00;6186124;23;20035;-89
2023/08/19 06:14:17;;;;;;;7.32;3.90;;;;;;;24.46;65.55;99835.16;6161069;23;20028;-89
2023/08/19 06:16:44;;;;;;;5.05;3.88;;;;;;;24.49;65.29;99831.97;6185582;23;20078;-89
2023/08/19 06:19:11;;;;;;;5.65;3.80;;;;;;;24.52;65.07;99828.78;6210961;23;20087;-89
2023/08/19 06:21:39;;;;;;;4.65;3.60;;;;;;;24.60;64.41;99833.09;6186214;23;20070;-88
2023/08/19 06:24:07;;;;;;;6.70;4.00;;;;;;;24.63;64.43;99835.38;6160941;23;20024;-89
2023/08/19 06:26:33;;;;;;;6.65;3.75;;;;;;;24.65;64.51;99828.66;6184850;23;20512;-90
2023/08/19 06:29:00;;;;;;;6.53;3.75;;;;;;;24.66;64.68;99826.75;6211925;23;20020;-88
2023/08/19 06:31:27;;;;;;;4.85;3.80;;;;;;;24.71;63.98;99840.50;6186395;23;20024;-89
2023/08/19 06:33:54;;;;;;;5.47;3.60;;;;;;;24.74;64.47;99845.44;6185486;23;20028;-89
2023/08/19 06:36:28;;;;;;;6.85;3.65;;;;;;;24.74;64.61;99847.34;6186485;23;20020;-89
2023/08/19 06:39:07;;;;;;;5.65;4.03;;;;;;;24.72;64.39;99850.28;6136737;23;20439;-89
2023/08/19 06:41:35;;;;;;;3.80;3.50;;;;;;;24.81;64.26;99851.63;6184706;23;25974;-90
2023/08/19 06:44:07;;;;;;;6.40;3.80;;;;;;;24.86;64.81;99851.78;6186661;23;20028;-90
2023/08/19 06:46:34;;;;;;;7.20;3.80;;;;;;;24.90;64.85;99857.56;6186399;23;20436;-90
2023/08/19 06:49:01;;;;;;;4.90;3.65;;;;;;;24.92;64.32;99852.75;6136690;23;20027;-90
2023/08/19 06:51:29;;;;;;;4.88;4.00;;;;;;;24.94;64.33;99860.69;6185285;23;20039;-89
2023/08/19 06:53:56;;;;;;;6.05;3.90;;;;;;;24.96;64.41;99872.97;6186460;23;20043;-89
2023/08/19 06:56:53;;;;;;;4.70;3.70;;;;;;;24.87;64.47;99861.56;6211195;23;20016;-89
2023/08/19 06:59:24;;;;;;;7.05;4.05;;;;;;;25.01;63.65;99867.69;6159898;23;20024;-90
2023/08/19 07:01:52;;;;;;;7.65;3.88;;;;;;;25.03;63.11;99868.25;6184383;23;20376;-89
2023/08/19 07:04:27;;;;;;;4.28;3.42;;;;;;;25.00;62.99;99874.16;6210126;23;20020;-90
2023/08/19 07:06:56;;;;;;;5.68;4.10;;;;;;;25.02;63.12;99871.22;6187030;23;20020;-91
2023/08/19 07:09:23;;;;;;;6.75;3.95;;;;;;;25.05;63.84;99874.28;6160775;23;20491;-89
2023/08/19 07:11:54;;;;;;;5.35;3.85;;;;;;;25.10;64.13;99876.31;6160017;23;20027;-92
2023/08/19 07:14:25;;;;;;;4.65;4.05;;;;;;;25.13;64.15;99873.13;6185799;23;20043;-91
2023/08/19 07:16:53;;;;;;;7.55;3.75;;;;;;;25.16;63.67;99872.69;6160399;23;20035;-91
2023/08/19 07:19:40;;;;;;;4.55;4.15;;;;;;;25.04;63.20;99872.66;6161556;23;20317;-90
2023/08/19 07:22:07;;;;;;;4.55;3.80;;;;;;;25.18;63.50;99883.34;6185190;23;20083;-91
2023/08/19 07:24:35;;;;;;;4.22;3.83;;;;;;;25.20;63.68;99887.50;6160099;23;20439;-91
2023/08/19 07:27:05;;;;;;;7.78;3.88;;;;;;;25.20;63.75;99879.34;6136474;23;20024;-91
2023/08/19 07:29:32;;;;;;;6.93;4.28;;;;;;;25.21;64.04;99878.28;6160508;23;20096;-91
2023/08/19 07:31:59;;;;;;;4.00;3.67;;;;;;;25.23;63.45;99878.88;6160403;23;20078;-90
2023/08/19 07:34:26;;;;;;;7.20;4.18;;;;;;;25.28;63.11;99878.19;6185579;23;20024;-92
2023/08/19 07:36:53;;;;;;;4.28;3.45;;;;;;;25.29;63.18;99885.28;6185353;23;20095;-92
2023/08/19 07:39:20;;;;;;;4.75;3.58;;;;;;;25.31;63.13;99878.56;6135849;23;20078;-93
2023/08/19 07:41:46;;;;;;;5.43;3.83;;;;;;;25.34;63.24;99878.09;6184427;23;20027;-92
2023/08/19 07:44:13;;;;;;;6.05;3.47;;;;;;;25.37;62.68;99871.38;6185340;23;20020;-90
2023/08/19 07:46:40;;;;;;;4.72;3.60;;;;;;;25.40;62.42;99875.53;6184516;23;20054;-91
2023/08/19 07:49:07;;;;;;;6.13;3.45;;;;;;;25.44;62.85;99874.84;6185176;23;20383;-90
2023/08/19 07:51:34;;;;;;;5.32;4.40;;;;;;;25.43;63.10;99867.72;6160181;23;20107;-91
2023/08/19 07:54:01;;;;;;;6.97;3.83;;;;;;;25.47;62.64;99871.66;6185126;23;20024;-91
2023/08/19 07:56:27;;;;;;;5.63;3.92;;;;;;;25.48;62.98;99870.56;6184446;23;20020;-91
2023/08/19 07:58:54;;;;;;;6.53;3.72;;;;;;;25.51;63.19;99880.97;6184661;23;20050;-91
2023/08/19 08:01:21;;;;;;;5.38;3.78;;;;;;;25.58;63.43;99877.34;6184550;23;20020;-92
2023/08/19 08:03:48;;;;;;;4.30;3.35;;;;;;;25.61;63.38;99880.41;6159557;23;20043;-91
2023/08/19 08:06:15;;;;;;;7.35;3.95;;;;;;;25.68;63.23;99877.59;6184466;23;20099;-90
2023/08/19 08:08:42;;;;;;;3.85;3.30;;;;;;;25.70;62.71;99876.31;6184171;23;20048;-90
2023/08/19 08:11:09;;;;;;;5.88;3.78;;;;;;;25.71;62.63;99867.06;6160326;23;20051;-90
2023/08/19 08:13:36;;;;;;;4.35;3.10;;;;;;;25.76;63.10;99872.63;6209383;23;20042;-90
2023/08/19 08:16:03;;;;;;;6.00;4.53;;;;;;;25.83;63.53;99877.97;6184174;23;20428;-91
2023/08/19 08:18:30;;;;;;;4.65;3.10;;;;;;;25.85;62.88;99877.75;6183549;23;20023;-90
2023/08/19 08:20:57;;;;;;;5.22;3.50;;;;;;;25.85;63.03;99859.56;6182581;23;20452;-90
2023/08/19 08:23:23;;;;;;;8.20;3.97;;;;;;;25.90;62.73;99862.41;6182150;23;20119;-88
2023/08/19 08:25:53;;;;;;;5.47;3.83;;;;;;;25.95;62.96;99865.25;6157559;23;20506;-87
2023/08/19 08:28:19;;;;;;;4.60;3.65;;;;;;;25.98;62.88;99862.03;6206823;23;20042;-88
2023/08/19 08:30:46;;;;;;;7.50;3.58;;;;;;;26.01;62.34;99870.81;6156592;23;20024;-87
2023/08/19 08:33:13;;;;;;;8.27;3.25;;;;;;;26.05;62.82;99867.34;6158489;23;20020;-88
2023/08/19 08:35:40;;;;;;;5.45;3.60;;;;;;;26.04;63.11;99854.81;6234601;23;20024;-90
2023/08/19 08:38:07;;;;;;;5.45;3.50;;;;;;;26.10;63.11;99851.13;6158654;23;20024;-90
2023/08/19 08:40:33;;;;;;;5.00;3.55;;;;;;;26.14;63.48;99862.41;6182912;23;20024;-91
2023/08/19 08:43:02;;;;;;;4.63;3.58;;;;;;;26.17;62.42;99865.47;6183576;23;20095;-91
2023/08/19 08:45:31;;;;;;;7.13;3.60;;;;;;;26.20;62.63;99854.13;6182975;23;20031;-92
2023/08/19 08:48:01;;;;;;;4.80;4.18;;;;;;;26.25;62.52;99852.56;6182978;23;20455;-89
2023/08/19 08:50:28;;;;;;;3.75;3.35;;;;;;;26.23;61.83;99850.09;6185068;23;20082;-90
2023/08/19 08:52:56;;;;;;;5.45;3.30;;;;;;;26.28;61.40;99862.97;6182903;23;20024;-90
2023/08/19 08:55:23;;;;;;;8.07;4.10;;;;;;;26.30;61.69;99867.09;6208110;23;20032;-90
2023/08/19 08:57:50;;;;;;;8.30;4.13;;;;;;;26.33;60.54;99871.25;6182886;23;20421;-90
2023/08/19 09:00:17;;;;;;;4.32;3.75;;;;;;;26.34;60.41;99873.75;6207390;23;20024;-90
2023/08/19 09:02:45;;;;;;;4.70;3.58;;;;;;;26.41;60.55;99879.06;6182793;23;20455;-90
2023/08/19 09:05:12;;;;;;;5.88;3.17;;;;;;;26.41;60.41;99873.63;6183251;23;20380;-90
2023/08/19 09:07:40;;;;;;;4.43;3.22;;;;;;;26.41;60.54;99869.00;6182539;23;20027;-92
2023/08/19 09:10:12;;;;;;;5.25;3.75;;;;;;;26.42;60.23;99872.56;6157670;23;20020;-90
2023/08/19 09:12:42;;;;;;;11.55;3.70;;;;;;;26.45;61.06;99865.81;6157478;23;20526;-90
2023/08/19 09:15:11;;;;;;;5.75;3.95;;;;;;;26.49;61.16;99858.81;6182532;23;20020;-89
2023/08/19 09:17:39;;;;;;;8.32;3.85;;;;;;;26.52;60.91;99856.47;6181046;23;20521;-91
2023/08/19 09:20:08;;;;;;;7.07;3.67;;;;;;;26.55;60.73;99858.69;6088785;23;1115006;-90
2023/08/19 09:22:37;;;;;;;5.70;4.00;;;;;;;26.59;61.08;99865.34;6161359;23;20379;-91
2023/08/19 09:25:07;;;;;;;4.90;3.55;;;;;;;26.57;61.48;99864.75;6162230;23;20074;-91
2023/08/19 09:27:34;;;;;;;5.90;3.55;;;;;;;26.64;60.94;99870.06;6210734;23;20020;-90
2023/08/19 09:30:01;;;;;;;4.95;3.50;;;;;;;26.67;61.46;99877.75;6186345;23;20016;-91
2023/08/19 09:32:35;;;;;;;6.35;3.58;;;;;;;26.66;61.02;99880.69;6185534;23;20027;-91
2023/08/19 09:35:06;;;;;;;7.03;3.13;;;;;;;26.70;61.02;99880.00;6184802;23;20020;-92
2023/08/19 09:37:34;;;;;;;7.80;3.85;;;;;;;26.76;60.90;99878.19;6160276;23;20016;-90
2023/08/19 09:40:07;;;;;;;5.82;3.78;;;;;;;26.77;60.67;99882.59;6210690;23;20521;-91
2023/08/19 09:42:37;;;;;;;5.70;3.35;;;;;;;26.78;60.70;99885.06;6186492;23;20091;-91
2023/08/19 09:45:05;;;;;;;4.35;3.53;;;;;;;26.81;60.63;99881.84;6210183;23;20400;-92
2023/08/19 09:47:45;;;;;;;5.03;3.55;;;;;;;26.79;60.73;99892.19;6185155;23;20050;-91
2023/08/19 09:50:12;;;;;;;6.57;3.67;;;;;;;26.84;60.08;99884.09;6185470;23;20522;-90
2023/08/19 09:52:40;;;;;;;7.00;4.07;;;;;;;26.89;60.72;99885.25;6185889;23;20086;-91
2023/08/19 09:55:07;;;;;;;5.13;3.88;;;;;;;26.90;60.93;99873.31;6136890;23;20020;-91
2023/08/19 09:57:34;;;;;;;5.18;4.10;;;;;;;26.92;60.71;99885.63;6185054;23;20024;-91
2023/08/19 10:00:06;;;;;;;7.30;4.07;;;;;;;26.96;60.13;99877.78;6161167;23;20025;-91
2023/08/19 10:02:34;;;;;;;7.43;3.45;;;;;;;26.97;60.60;99877.53;6186009;23;20183;-93
2023/08/19 10:05:03;;;;;;;5.72;3.80;;;;;;;27.02;60.26;99874.06;6187672;23;24977;-93
2023/08/19 10:07:31;;;;;;;8.05;4.43;;;;;;;27.04;59.87;99872.75;6137974;23;20364;-93
2023/08/19 10:10:04;;;;;;;4.40;3.72;;;;;;;27.08;59.53;99872.28;6137905;23;20074;-93
2023/08/19 10:12:35;;;;;;;;;;;;;;;26.98;59.67;99868.28;6138375;23;20017;-93
2023/08/19 10:15:05;;;;;;;6.93;3.90;;;;;;;27.18;60.46;99870.59;6186924;23;19919;-92
2023/08/19 10:17:33;;;;;;;6.65;4.05;;;;;;;27.21;59.64;99872.03;6162465;23;20514;-92
2023/08/19 10:20:05;;;;;;;6.75;4.00;;;;;;;27.21;59.63;99869.28;6162021;23;20351;-92
2023/08/19 10:22:34;;;;;;;7.80;3.55;;;;;;;27.24;60.41;99866.06;6185729;23;20016;-93
2023/08/19 10:25:03;;;;;;;9.60;4.10;;;;;;;27.25;60.42;99856.84;6187999;23;20020;-93
2023/08/19 10:27:31;;;;;;;7.93;4.03;;;;;;;27.31;60.12;99863.22;6187177;23;20016;-94
2023/08/19 10:29:58;;;;;;;6.43;3.95;;;;;;;27.33;59.89;99869.25;6162822;23;20036;-94
2023/08/19 10:32:32;;;;;;;7.38;4.10;;;;;;;27.35;59.41;99864.34;6163345;23;20016;-93
2023/08/19 10:35:09;;;;;;;8.25;4.20;;;;;;;27.37;60.28;99860.31;6187514;23;20087;-93
2023/08/19 10:37:48;;;;;;;6.82;3.75;;;;;;;27.39;60.38;99860.91;6167457;23;20079;-94
2023/08/19 10:40:25;;;;;;;7.25;4.25;;;;;;;27.41;59.48;99861.47;6163584;23;20023;-95
2023/08/19 10:43:00;;;;;;;7.07;4.20;;;;;;;27.45;60.39;99856.34;6154419;23;20043;-95
2023/08/19 10:45:35;;;;;;;8.25;4.05;;;;;;;27.49;60.47;99858.34;6143912;23;20035;-95
2023/08/19 10:48:46;;;;;;;6.53;4.25;;;;;;;27.46;59.93;99855.28;6156213;23;20047;-94
2023/08/19 10:51:18;;;;;;;7.45;3.75;;;;;;;27.58;59.44;99856.06;6184357;23;20046;-93
2023/08/19 10:54:04;;;;;;;6.80;3.90;;;;;;;27.60;58.95;99856.59;6186159;23;20023;-93
2023/08/19 10:56:31;;;;;;;6.47;4.10;;;;;;;27.58;59.50;99856.06;6161081;23;20340;-94
2023/08/19 10:58:59;;;;;;;7.35;4.30;;;;;;;27.62;59.20;99853.66;6162313;23;20024;-93
2023/08/19 11:01:30;;;;;;;5.45;4.07;;;;;;;27.63;59.19;99858.88;6161442;23;20058;-94
2023/08/19 11:03:58;;;;;;;6.22;4.38;;;;;;;27.68;59.26;99856.22;6186382;23;20024;-94
2023/08/19 11:06:31;;;;;;;6.32;3.63;;;;;;;27.70;59.03;99861.41;6187007;23;20016;-95
2023/08/19 11:08:59;;;;;;;5.90;4.13;;;;;;;27.79;58.57;99868.13;6162034;23;20368;-94
2023/08/19 11:11:26;;;;;;;7.28;3.95;;;;;;;27.81;58.25;99873.31;6161306;23;20039;-94
2023/08/19 11:13:53;;;;;;;7.70;4.68;;;;;;;27.83;58.31;99860.28;6187137;23;20023;-93
2023/08/19 11:16:27;;;;;;;7.47;4.35;;;;;;;27.81;59.54;99868.72;6211855;23;20034;-94
2023/08/19 11:18:56;;;;;;;4.90;3.90;;;;;;;27.87;58.43;99870.47;6162212;23;20031;-95
2023/08/19 11:21:24;;;;;;;5.85;4.20;;;;;;;27.92;58.28;99873.25;6162582;23;20028;-94
2023/08/19 11:23:52;;;;;;;8.63;3.80;;;;;;;27.97;57.24;99872.53;6162527;23;20035;-94
2023/08/19 11:26:22;;;;;;;7.45;4.10;;;;;;;28.01;57.20;99870.09;6138132;23;20030;-95
2023/08/19 11:28:49;;;;;;;5.80;3.85;;;;;;;28.10;57.59;99871.34;6190212;23;20467;-96
2023/08/19 11:31:17;;;;;;;5.68;4.63;;;;;;;28.13;56.29;99873.56;6217468;23;20020;-95
2023/08/19 11:33:44;;;;;;;6.38;3.97;;;;;;;28.16;56.39;99870.34;6165490;23;20024;-94
2023/08/19 11:36:12;;;;;;;7.53;4.72;;;;;;;28.19;56.19;99869.00;6190705;23;20041;-94
2023/08/19 11:38:40;;;;;;;6.38;4.22;;;;;;;28.18;56.71;99867.38;6140597;23;20066;-94